Time,TemperatureF,DewpointF,PressureIn,WindDirection,WindDirectionDegrees,WindSpeedMPH,WindSpeedGustMPH,Humidity,HourlyPrecipIn,Conditions,Clouds,dailyrainin,SoftwareType,DateUTC
2013-02-12 00:01:00,67.0,62.0,30.13,SW,219,0.0,0.0,84,0.00,,,0.00,,2013-02-12 05:01:00,
2013-02-12 00:11:00,67.0,62.0,30.12,SW,219,0.0,0.0,84,0.00,,,0.00,,2013-02-12 05:11:00,
2013-02-12 00:21:00,67.0,62.0,30.12,SW,219,0.0,0.0,84,0.00,,,0.00,,2013-02-12 05:21:00,
2013-02-12 00:32:00,66.0,61.0,30.12,SW,219,0.0,0.0,84,0.00,,,0.00,,2013-02-12 05:32:00,
2013-02-12 00:42:00,66.0,61.0,30.12,SW,219,0.0,0.0,84,0.00,,,0.00,,2013-02-12 05:42:00,
2013-02-12 00:52:00,65.0,60.0,30.12,SW,218,0.0,0.0,84,0.00,,,0.00,,2013-02-12 05:52:00,
2013-02-12 01:02:00,64.0,59.0,30.12,SW,218,0.0,0.0,84,0.00,,,0.00,,2013-02-12 06:02:00,
2013-02-12 01:12:00,64.0,59.0,30.11,SW,218,0.0,0.0,85,0.00,,,0.00,,2013-02-12 06:12:00,
2013-02-12 01:22:00,64.0,59.0,30.11,SW,218,0.0,0.0,85,0.00,,,0.00,,2013-02-12 06:22:00,
2013-02-12 01:32:00,64.0,59.0,30.12,SW,219,0.0,0.0,85,0.00,,,0.00,,2013-02-12 06:32:00,
2013-02-12 01:42:00,63.0,58.0,30.11,SW,219,0.0,0.0,85,0.00,,,0.00,,2013-02-12 06:42:00,
2013-02-12 01:52:00,63.0,58.0,30.11,SW,219,0.0,0.0,85,0.00,,,0.00,,2013-02-12 06:52:00,
2013-02-12 02:02:00,63.0,58.0,30.11,SW,219,0.0,0.0,85,0.00,,,0.00,,2013-02-12 07:02:00,
2013-02-12 02:11:00,63.0,58.0,30.11,SW,219,0.0,0.0,85,0.00,,,0.00,,2013-02-12 07:11:00,
2013-02-12 02:21:00,63.0,58.0,30.11,SW,218,0.0,0.0,85,0.00,,,0.00,,2013-02-12 07:21:00,
2013-02-12 02:32:00,62.0,58.0,30.10,SW,219,0.0,0.0,86,0.00,,,0.00,,2013-02-12 07:32:00,
2013-02-12 02:52:00,62.0,58.0,30.09,SW,219,0.0,0.0,86,0.00,,,0.00,,2013-02-12 07:52:00,
2013-02-12 03:01:00,62.0,58.0,30.09,SW,219,0.0,0.0,86,0.00,,,0.00,,2013-02-12 08:01:00,
2013-02-12 03:11:00,62.0,58.0,30.09,SW,219,0.0,0.0,86,0.00,,,0.00,,2013-02-12 08:11:00,
2013-02-12 03:21:00,61.0,57.0,30.09,SW,219,0.0,0.0,86,0.00,,,0.00,,2013-02-12 08:21:00,
2013-02-12 03:32:00,61.0,57.0,30.09,SW,219,0.0,0.0,86,0.00,,,0.00,,2013-02-12 08:32:00,
2013-02-12 03:52:00,62.0,58.0,30.09,SW,219,0.0,0.0,86,0.00,,,0.00,,2013-02-12 08:52:00,
2013-02-12 04:02:00,62.0,58.0,30.09,SW,218,0.0,0.0,86,0.00,,,0.00,,2013-02-12 09:02:00,
2013-02-12 04:11:00,62.0,58.0,30.09,SW,218,0.0,0.0,86,0.00,,,0.00,,2013-02-12 09:11:00,
2013-02-12 04:21:00,62.0,58.0,30.08,SW,219,0.0,0.0,86,0.00,,,0.00,,2013-02-12 09:21:00,
2013-02-12 04:32:00,64.0,60.0,30.07,SSW,207,0.0,0.0,86,0.00,,,0.00,,2013-02-12 09:32:00,
2013-02-12 04:42:00,65.0,61.0,30.07,SSE,162,2.0,5.0,86,0.00,,,0.00,,2013-02-12 09:42:00,
2013-02-12 04:52:00,65.0,61.0,30.07,SSE,162,2.0,5.0,86,0.00,,,0.00,,2013-02-12 09:52:00,
2013-02-12 05:01:00,65.0,61.0,30.07,SSE,167,2.0,6.0,86,0.00,,,0.00,,2013-02-12 10:01:00,
2013-02-12 05:11:00,66.0,62.0,30.07,South,171,1.0,6.0,86,0.00,,,0.00,,2013-02-12 10:11:00,
2013-02-12 05:21:00,66.0,62.0,30.07,South,171,1.0,6.0,86,0.00,,,0.00,,2013-02-12 10:21:00,
2013-02-12 05:32:00,66.0,62.0,30.07,South,187,1.0,4.0,86,0.00,,,0.00,,2013-02-12 10:32:00,
2013-02-12 05:43:00,66.0,62.0,30.07,South,187,1.0,4.0,86,0.00,,,0.00,,2013-02-12 10:43:00,
2013-02-12 05:52:00,66.0,62.0,30.07,South,187,0.0,2.0,86,0.00,,,0.00,,2013-02-12 10:52:00,
2013-02-12 06:01:00,66.0,62.0,30.07,South,187,0.0,3.0,86,0.00,,,0.00,,2013-02-12 11:01:00,
2013-02-12 06:11:00,66.0,62.0,30.07,South,187,0.0,3.0,86,0.00,,,0.00,,2013-02-12 11:11:00,
2013-02-12 06:22:00,66.0,62.0,30.07,South,187,0.0,0.0,86,0.00,,,0.00,,2013-02-12 11:22:00,
2013-02-12 06:32:00,66.0,62.0,30.07,South,187,0.0,0.0,86,0.00,,,0.00,,2013-02-12 11:32:00,
2013-02-12 06:42:00,66.0,62.0,30.07,South,187,0.0,0.0,86,0.00,,,0.00,,2013-02-12 11:42:00,
2013-02-12 06:52:00,65.0,61.0,30.07,South,187,0.0,0.0,86,0.00,,,0.00,,2013-02-12 11:52:00,
2013-02-12 07:01:00,65.0,61.0,30.08,South,187,0.0,0.0,86,0.00,,,0.00,,2013-02-12 12:01:00,
2013-02-12 07:11:00,65.0,61.0,30.08,South,187,0.0,0.0,86,0.00,,,0.00,,2013-02-12 12:11:00,
2013-02-12 07:21:00,65.0,61.0,30.08,South,187,0.0,0.0,86,0.00,,,0.00,,2013-02-12 12:21:00,
2013-02-12 07:32:00,65.0,61.0,30.08,South,187,0.0,0.0,86,0.00,,,0.00,,2013-02-12 12:32:00,
2013-02-12 07:42:00,65.0,61.0,30.08,South,187,0.0,0.0,86,0.00,,,0.00,,2013-02-12 12:42:00,
2013-02-12 07:53:00,64.0,60.0,30.09,South,187,0.0,0.0,86,0.00,,,0.00,,2013-02-12 12:53:00,
2013-02-12 08:01:00,65.0,61.0,30.09,South,187,0.0,0.0,86,0.00,,,0.00,,2013-02-12 13:01:00,
2013-02-12 08:11:00,66.0,62.0,30.09,South,187,0.0,0.0,86,0.00,,,0.00,,2013-02-12 13:11:00,
2013-02-12 08:22:00,66.0,62.0,30.09,South,187,0.0,0.0,86,0.00,,,0.00,,2013-02-12 13:22:00,
2013-02-12 08:32:00,68.0,64.0,30.09,South,180,4.0,6.0,86,0.00,,,0.00,,2013-02-12 13:32:00,
2013-02-12 08:42:00,68.0,64.0,30.09,South,180,4.0,6.0,86,0.00,,,0.00,,2013-02-12 13:42:00,
2013-02-12 08:52:00,69.0,65.0,30.10,SSE,155,2.0,5.0,86,0.00,,,0.00,,2013-02-12 13:52:00,
2013-02-12 09:01:00,70.0,65.0,30.10,SSE,158,3.0,7.0,85,0.00,,,0.00,,2013-02-12 14:01:00,
2013-02-12 09:12:00,70.0,65.0,30.10,SSE,158,3.0,7.0,85,0.00,,,0.00,,2013-02-12 14:12:00,
2013-02-12 09:22:00,72.0,67.0,30.11,South,172,4.0,9.0,84,0.00,,,0.00,,2013-02-12 14:22:00,
2013-02-12 09:32:00,73.0,68.0,30.11,SW,214,5.0,8.0,83,0.00,,,0.00,,2013-02-12 14:32:00,
2013-02-12 09:42:00,73.0,68.0,30.11,SW,214,5.0,8.0,83,0.00,,,0.00,,2013-02-12 14:42:00,
2013-02-12 09:52:00,75.0,69.0,30.11,South,169,4.0,7.0,81,0.00,,,0.00,,2013-02-12 14:52:00,
2013-02-12 10:02:00,76.0,69.0,30.11,West,263,6.0,10.0,79,0.00,,,0.00,,2013-02-12 15:02:00,
2013-02-12 10:11:00,77.0,69.0,30.11,SSW,194,6.0,13.0,77,0.00,,,0.00,,2013-02-12 15:11:00,
2013-02-12 10:21:00,77.0,69.0,30.11,SSW,194,6.0,13.0,77,0.00,,,0.00,,2013-02-12 15:21:00,
2013-02-12 10:32:00,76.0,69.0,30.12,South,177,5.0,12.0,78,0.00,,,0.00,,2013-02-12 15:32:00,
2013-02-12 10:42:00,76.0,69.0,30.12,South,177,5.0,12.0,78,0.00,,,0.00,,2013-02-12 15:42:00,
2013-02-12 10:52:00,77.0,69.0,30.12,SW,217,6.0,11.0,77,0.00,,,0.00,,2013-02-12 15:52:00,
2013-02-12 11:01:00,78.0,70.0,30.12,SSW,192,7.0,15.0,76,0.00,,,0.00,,2013-02-12 16:01:00,
2013-02-12 11:11:00,78.0,70.0,30.12,SSW,192,7.0,15.0,76,0.00,,,0.00,,2013-02-12 16:11:00,
2013-02-12 11:22:00,80.0,70.0,30.12,WSW,256,6.0,14.0,71,0.00,,,0.00,,2013-02-12 16:22:00,
2013-02-12 11:32:00,80.0,70.0,30.11,WSW,248,6.0,14.0,72,0.00,,,0.00,,2013-02-12 16:32:00,
2013-02-12 11:42:00,80.0,70.0,30.11,WSW,248,6.0,14.0,72,0.00,,,0.00,,2013-02-12 16:42:00,
2013-02-12 11:52:00,80.0,70.0,30.10,WSW,252,5.0,15.0,71,0.00,,,0.00,,2013-02-12 16:52:00,
2013-02-12 12:01:00,80.0,69.0,30.10,West,271,5.0,12.0,70,0.00,,,0.00,,2013-02-12 17:01:00,
2013-02-12 12:12:00,81.0,70.0,30.09,WSW,240,7.0,19.0,70,0.00,,,0.00,,2013-02-12 17:12:00,
2013-02-12 12:21:00,81.0,70.0,30.09,WSW,240,7.0,19.0,70,0.00,,,0.00,,2013-02-12 17:21:00,
2013-02-12 12:32:00,80.0,69.0,30.08,SSW,207,2.0,16.0,70,0.00,,,0.00,,2013-02-12 17:32:00,
2013-02-12 12:42:00,80.0,69.0,30.08,SSW,207,2.0,16.0,70,0.00,,,0.00,,2013-02-12 17:42:00,
2013-02-12 12:52:00,81.0,70.0,30.08,WSW,248,4.0,20.0,69,0.00,,,0.00,,2013-02-12 17:52:00,
2013-02-12 13:01:00,82.0,70.0,30.07,WSW,252,2.0,6.0,68,0.00,,,0.00,,2013-02-12 18:01:00,
2013-02-12 13:11:00,81.0,70.0,30.06,SW,214,4.0,17.0,69,0.00,,,0.00,,2013-02-12 18:11:00,
2013-02-12 13:23:00,81.0,70.0,30.06,SW,214,4.0,17.0,69,0.00,,,0.00,,2013-02-12 18:23:00,
2013-02-12 13:32:00,81.0,70.0,30.06,West,263,8.0,18.0,70,0.00,,,0.00,,2013-02-12 18:32:00,
2013-02-12 13:41:00,81.0,70.0,30.06,West,263,8.0,18.0,70,0.00,,,0.00,,2013-02-12 18:41:00,
2013-02-12 13:52:00,80.0,70.0,30.05,South,179,5.0,19.0,71,0.00,,,0.00,,2013-02-12 18:52:00,
2013-02-12 14:02:00,81.0,70.0,30.04,WSW,252,1.0,7.0,70,0.00,,,0.00,,2013-02-12 19:02:00,
2013-02-12 14:11:00,81.0,69.0,30.03,South,173,3.0,17.0,68,0.00,,,0.00,,2013-02-12 19:11:00,
2013-02-12 14:21:00,81.0,69.0,30.03,South,173,3.0,17.0,68,0.00,,,0.00,,2013-02-12 19:21:00,
2013-02-12 14:31:00,80.0,69.0,30.02,SW,226,4.0,15.0,70,0.00,,,0.00,,2013-02-12 19:31:00,
2013-02-12 14:42:00,80.0,69.0,30.01,WSW,246,7.0,18.0,69,0.00,,,0.00,,2013-02-12 19:42:00,
2013-02-12 14:52:00,80.0,69.0,30.01,WSW,246,7.0,18.0,69,0.00,,,0.00,,2013-02-12 19:52:00,
2013-02-12 15:01:00,81.0,70.0,30.01,WSW,242,7.0,20.0,69,0.00,,,0.00,,2013-02-12 20:01:00,
2013-02-12 15:11:00,81.0,70.0,30.01,WSW,242,7.0,20.0,69,0.00,,,0.00,,2013-02-12 20:11:00,
2013-02-12 15:21:00,81.0,69.0,30.00,WSW,245,5.0,22.0,68,0.00,,,0.00,,2013-02-12 20:21:00,
2013-02-12 15:32:00,80.0,69.0,30.00,South,191,9.0,19.0,70,0.00,,,0.00,,2013-02-12 20:32:00,
2013-02-12 15:41:00,80.0,69.0,30.00,South,191,9.0,19.0,70,0.00,,,0.00,,2013-02-12 20:41:00,
2013-02-12 15:52:00,80.0,70.0,29.99,South,181,4.0,21.0,72,0.00,,,0.00,,2013-02-12 20:52:00,
2013-02-12 16:01:00,80.0,69.0,29.98,WSW,239,3.0,20.0,70,0.00,,,0.00,,2013-02-12 21:01:00,
2013-02-12 16:11:00,80.0,69.0,29.98,WSW,239,3.0,20.0,70,0.00,,,0.00,,2013-02-12 21:11:00,
2013-02-12 16:21:00,79.0,69.0,29.98,WSW,239,3.0,17.0,72,0.00,,,0.00,,2013-02-12 21:21:00,
2013-02-12 16:31:00,79.0,70.0,29.98,WSW,246,2.0,12.0,74,0.00,,,0.00,,2013-02-12 21:31:00,
2013-02-12 16:42:00,78.0,69.0,29.98,West,263,4.0,13.0,75,0.00,,,0.00,,2013-02-12 21:42:00,
2013-02-12 16:52:00,78.0,69.0,29.98,West,263,4.0,13.0,75,0.00,,,0.00,,2013-02-12 21:52:00,
2013-02-12 17:01:00,78.0,70.0,29.98,SW,233,2.0,17.0,76,0.00,,,0.00,,2013-02-12 22:01:00,
2013-02-12 17:12:00,78.0,70.0,29.98,SW,233,2.0,17.0,76,0.00,,,0.00,,2013-02-12 22:12:00,
2013-02-12 17:21:00,77.0,69.0,29.98,WSW,246,3.0,19.0,76,0.00,,,0.00,,2013-02-12 22:21:00,
2013-02-12 17:32:00,77.0,70.0,29.98,SW,226,3.0,16.0,78,0.00,,,0.00,,2013-02-12 22:32:00,
2013-02-12 17:42:00,77.0,70.0,29.98,SW,226,3.0,16.0,78,0.00,,,0.00,,2013-02-12 22:42:00,
2013-02-12 17:52:00,76.0,69.0,29.98,WSW,240,1.0,10.0,79,0.00,,,0.00,,2013-02-12 22:52:00,
2013-02-12 18:01:00,76.0,69.0,29.99,SSW,200,2.0,16.0,79,0.00,,,0.00,,2013-02-12 23:01:00,
2013-02-12 18:11:00,75.0,68.0,29.99,WSW,250,1.0,4.0,80,0.00,,,0.00,,2013-02-12 23:11:00,
2013-02-12 18:21:00,75.0,68.0,29.99,WSW,250,1.0,4.0,80,0.00,,,0.00,,2013-02-12 23:21:00,
2013-02-12 18:32:00,75.0,69.0,30.00,SSW,204,1.0,5.0,81,0.00,,,0.00,,2013-02-12 23:32:00,
2013-02-12 18:42:00,75.0,69.0,30.00,SSW,204,1.0,5.0,81,0.00,,,0.00,,2013-02-12 23:42:00,
2013-02-12 18:52:00,74.0,68.0,29.99,SW,234,0.0,3.0,81,0.00,,,0.00,,2013-02-12 23:52:00,
2013-02-12 19:02:00,74.0,68.0,29.99,SW,223,0.0,2.0,82,0.00,,,0.00,,2013-02-13 00:02:00,
2013-02-12 19:11:00,74.0,68.0,29.99,SW,223,0.0,2.0,82,0.00,,,0.00,,2013-02-13 00:11:00,
2013-02-12 19:21:00,73.0,67.0,29.99,SW,229,0.0,0.0,82,0.00,,,0.00,,2013-02-13 00:21:00,
2013-02-12 19:32:00,73.0,68.0,29.99,SW,236,0.0,0.0,83,0.00,,,0.00,,2013-02-13 00:32:00,
2013-02-12 19:42:00,73.0,68.0,29.99,SW,236,0.0,0.0,83,0.00,,,0.00,,2013-02-13 00:42:00,
2013-02-12 19:52:00,73.0,68.0,29.99,SW,236,0.0,0.0,83,0.00,,,0.00,,2013-02-13 00:52:00,
2013-02-12 20:01:00,72.0,67.0,29.99,SW,234,0.0,0.0,83,0.00,,,0.00,,2013-02-13 01:01:00,
2013-02-12 20:11:00,72.0,67.0,29.99,SW,234,0.0,0.0,83,0.00,,,0.00,,2013-02-13 01:11:00,
2013-02-12 20:21:00,72.0,67.0,30.00,SW,226,0.0,0.0,83,0.00,,,0.00,,2013-02-13 01:21:00,
2013-02-12 20:31:00,72.0,67.0,30.00,SW,226,0.0,0.0,83,0.00,,,0.00,,2013-02-13 01:31:00,
2013-02-12 20:42:00,71.0,66.0,30.00,SW,226,0.0,0.0,84,0.00,,,0.00,,2013-02-13 01:42:00,
2013-02-12 20:52:00,71.0,66.0,30.00,SW,226,0.0,0.0,84,0.00,,,0.00,,2013-02-13 01:52:00,
2013-02-12 21:01:00,71.0,66.0,30.01,SW,226,0.0,0.0,84,0.00,,,0.00,,2013-02-13 02:01:00,
2013-02-12 21:11:00,71.0,66.0,30.01,SW,226,0.0,0.0,84,0.00,,,0.00,,2013-02-13 02:11:00,
2013-02-12 21:22:00,71.0,66.0,30.01,SW,226,0.0,0.0,84,0.00,,,0.00,,2013-02-13 02:22:00,
2013-02-12 21:31:00,71.0,66.0,30.01,SW,225,0.0,0.0,84,0.00,,,0.00,,2013-02-13 02:31:00,
2013-02-12 21:42:00,71.0,66.0,30.01,SW,225,0.0,0.0,84,0.00,,,0.00,,2013-02-13 02:42:00,
2013-02-12 21:52:00,70.0,65.0,30.01,SW,225,0.0,0.0,84,0.00,,,0.00,,2013-02-13 02:52:00,
2013-02-12 22:01:00,71.0,66.0,30.01,SW,225,0.0,0.0,85,0.00,,,0.00,,2013-02-13 03:01:00,
2013-02-12 22:11:00,70.0,65.0,30.01,SW,229,0.0,0.0,85,0.00,,,0.00,,2013-02-13 03:11:00,
2013-02-12 22:21:00,70.0,65.0,30.01,SW,229,0.0,0.0,85,0.00,,,0.00,,2013-02-13 03:21:00,
2013-02-12 22:32:00,70.0,65.0,30.01,SW,229,0.0,0.0,85,0.00,,,0.00,,2013-02-13 03:32:00,
2013-02-12 22:42:00,70.0,65.0,30.01,SW,229,0.0,0.0,85,0.00,,,0.00,,2013-02-13 03:42:00,
2013-02-12 22:52:00,71.0,66.0,30.01,SW,229,0.0,0.0,85,0.00,,,0.00,,2013-02-13 03:52:00,
2013-02-12 23:01:00,71.0,66.0,30.01,SW,227,0.0,0.0,85,0.00,,,0.00,,2013-02-13 04:01:00,
2013-02-12 23:11:00,71.0,66.0,30.01,SW,227,0.0,0.0,85,0.00,,,0.00,,2013-02-13 04:11:00,
2013-02-12 23:21:00,71.0,66.0,30.01,WSW,250,0.0,3.0,85,0.00,,,0.00,,2013-02-13 04:21:00,
2013-02-12 23:32:00,71.0,66.0,30.01,SW,227,1.0,2.0,85,0.00,,,0.00,,2013-02-13 04:32:00,
2013-02-12 23:41:00,71.0,66.0,30.01,SW,227,1.0,2.0,85,0.00,,,0.00,,2013-02-13 04:41:00,
2013-02-12 23:52:00,71.0,66.0,30.01,SW,232,0.0,0.0,85,0.00,,,0.00,,2013-02-13 04:52:00,